Time;durP1;ratioP1;P1;durP2;ratioP2;P2;SDS_P1;SDS_P2;PMS_P1;PMS_P2;Temp;Humidity;BMP_temperature;BMP_pressure;BME280_temperature;BME280_humidity;BME280_pressure;Samples;Min_cycle;Max_cycle;Signal;HPM_P1;HPM_P2
2023/05/22 00:02:27;;;;;;;1.75;1.65;;;;;;;21.82;58.77;100789.75;5185822;28;20033;-91
2023/05/22 00:05:19;;;;;;;3.42;1.45;;;;;;;21.81;58.61;100788.91;5184753;28;20084;-91
2023/05/22 00:08:10;;;;;;;1.33;1.23;;;;;;;21.67;59.56;100781.91;5188667;28;20431;-91
2023/05/22 00:11:02;;;;;;;2.10;1.30;;;;;;;21.75;59.31;100783.16;5184374;28;20017;-91
2023/05/22 00:13:53;;;;;;;3.25;1.95;;;;;;;21.66;59.61;100782.88;5175089;28;20021;-92
2023/05/22 00:16:45;;;;;;;1.02;1.02;;;;;;;21.69;59.15;100782.63;5182688;28;20057;-91
2023/05/22 00:19:35;;;;;;;5.45;2.10;;;;;;;21.65;59.37;100775.81;5175309;28;20037;-90
2023/05/22 00:22:27;;;;;;;2.38;2.17;;;;;;;21.67;59.04;100781.03;5176411;28;20041;-93
2023/05/22 00:25:18;;;;;;;3.55;2.28;;;;;;;21.58;59.40;100782.56;5177001;28;20409;-91
2023/05/22 00:28:10;;;;;;;1.58;1.48;;;;;;;21.58;58.95;100779.03;5183855;28;20052;-91
2023/05/22 00:31:02;;;;;;;7.32;1.85;;;;;;;21.56;59.23;100781.78;5194017;28;20084;-92
2023/05/22 00:33:53;;;;;;;2.25;2.08;;;;;;;21.54;59.54;100770.38;5173122;28;20069;-92
2023/05/22 00:36:43;;;;;;;1.70;1.40;;;;;;;21.53;59.52;100774.00;5176991;28;20065;-91
2023/05/22 00:39:34;;;;;;;2.40;1.38;;;;;;;21.54;59.56;100765.03;5193039;28;20055;-91
2023/05/22 00:42:25;;;;;;;1.45;1.35;;;;;;;21.45;59.61;100758.56;5180498;28;20044;-91
2023/05/22 00:45:16;;;;;;;2.13;1.75;;;;;;;21.44;59.81;100769.34;5182856;28;20030;-92
2023/05/22 00:48:08;;;;;;;1.67;1.58;;;;;;;21.39;59.45;100767.84;5181390;28;20037;-91
2023/05/22 00:50:59;;;;;;;1.58;1.48;;;;;;;21.36;59.51;100769.88;5194157;28;20045;-92
2023/05/22 00:53:50;;;;;;;1.95;1.75;;;;;;;21.30;59.74;100767.66;5181894;28;20034;-92
2023/05/22 00:56:42;;;;;;;1.40;1.10;;;;;;;21.30;59.52;100767.66;5193465;28;20057;-92
2023/05/22 00:59:33;;;;;;;2.33;2.03;;;;;;;21.30;59.62;100770.34;5198710;28;20037;-91
2023/05/22 01:02:24;;;;;;;5.40;3.25;;;;;;;21.28;59.26;100765.09;5179371;28;20041;-92
2023/05/22 01:05:16;;;;;;;1.33;1.25;;;;;;;21.26;59.45;100761.69;5183935;28;20026;-92
2023/05/22 01:08:08;;;;;;;1.58;1.48;;;;;;;21.21;59.74;100767.38;5180263;28;20560;-91
2023/05/22 01:11:17;;;;;;;4.05;2.78;;;;;;;21.21;59.77;100774.50;5195720;28;20060;-92
2023/05/22 01:14:39;;;;;;;1.67;1.58;;;;;;;21.16;59.72;100763.31;5185158;28;20030;-91
2023/05/22 01:17:51;;;;;;;4.25;2.20;;;;;;;21.13;59.58;100772.41;5184785;28;20053;-91
2023/05/22 01:20:51;;;;;;;2.13;1.92;;;;;;;21.13;59.59;100771.53;5182252;28;20045;-91
2023/05/22 01:24:05;;;;;;;2.33;2.13;;;;;;;21.07;59.80;100768.34;5180659;28;20045;-91
2023/05/22 01:27:14;;;;;;;0.90;0.90;;;;;;;21.02;59.76;100762.50;5208869;28;20026;-91
2023/05/22 01:30:05;;;;;;;2.35;2.15;;;;;;;21.00;59.77;100768.88;5191214;28;20025;-92
2023/05/22 01:32:57;;;;;;;2.47;1.73;;;;;;;20.98;59.92;100770.81;5182287;28;20038;-92
2023/05/22 01:35:54;;;;;;;1.65;1.55;;;;;;;20.94;59.88;100767.50;5193130;28;20022;-93
2023/05/22 01:38:45;;;;;;;3.13;1.92;;;;;;;20.92;59.71;100777.44;5201721;28;20029;-91
2023/05/22 01:41:36;;;;;;;1.73;1.63;;;;;;;20.90;59.62;100771.34;5192489;28;20033;-90
2023/05/22 01:44:27;;;;;;;2.67;2.03;;;;;;;20.88;59.87;100774.13;5193960;28;20026;-91
2023/05/22 01:47:18;;;;;;;2.70;2.15;;;;;;;20.85;59.93;100771.66;5200855;28;20124;-91
2023/05/22 01:50:10;;;;;;;2.00;1.80;;;;;;;20.82;60.19;100765.69;5181882;28;20057;-91
2023/05/22 01:53:41;;;;;;;3.97;1.50;;;;;;;20.81;59.80;100766.63;5195664;28;20208;-92
2023/05/22 01:56:54;;;;;;;1.13;1.00;;;;;;;20.75;60.02;100752.78;5196024;28;20053;-92
2023/05/22 01:59:54;;;;;;;1.67;1.30;;;;;;;20.70;60.23;100754.88;5206422;28;20041;-91
2023/05/22 02:02:48;;;;;;;2.00;1.55;;;;;;;20.69;60.24;100758.53;5193755;28;20035;-90
2023/05/22 02:05:40;;;;;;;1.40;1.30;;;;;;;20.67;60.23;100749.78;5194819;28;20033;-92
2023/05/22 02:08:31;;;;;;;1.58;1.48;;;;;;;20.65;60.06;100749.00;5185858;28;20037;-90
2023/05/22 02:11:25;;;;;;;1.75;1.15;;;;;;;20.65;60.19;100750.84;5181348;28;20040;-91
2023/05/22 02:14:17;;;;;;;0.85;0.82;;;;;;;20.61;60.55;100750.19;5179487;28;20034;-90
2023/05/22 02:17:08;;;;;;;1.60;1.38;;;;;;;20.55;60.49;100747.94;5202831;28;20034;-90
2023/05/22 02:19:59;;;;;;;1.42;1.33;;;;;;;20.54;60.48;100748.88;5199986;28;20089;-90
2023/05/22 02:22:50;;;;;;;1.40;1.30;;;;;;;20.47;60.44;100751.16;5191820;28;20038;-90
2023/05/22 02:25:40;;;;;;;2.35;1.75;;;;;;;20.26;63.43;100746.31;5182750;28;20308;-91
2023/05/22 02:28:32;;;;;;;1.75;1.52;;;;;;;20.36;62.03;100754.56;5177028;28;20041;-91
2023/05/22 02:31:23;;;;;;;1.02;0.93;;;;;;;20.32;61.30;100749.53;5191211;28;20037;-91
2023/05/22 02:34:14;;;;;;;1.17;0.90;;;;;;;20.33;60.95;100752.09;5190912;28;20508;-90
2023/05/22 02:37:05;;;;;;;1.13;1.05;;;;;;;20.35;60.82;100751.97;5196306;28;20523;-91
2023/05/22 02:39:56;;;;;;;2.97;1.70;;;;;;;20.27;61.10;100747.19;5180166;28;20477;-92
2023/05/22 02:42:47;;;;;;;2.08;1.98;;;;;;;20.27;60.94;100747.19;5214517;28;20037;-91
2023/05/22 02:45:38;;;;;;;1.45;1.35;;;;;;;20.24;60.63;100750.03;5203057;28;20164;-91
2023/05/22 02:48:28;;;;;;;2.45;1.30;;;;;;;20.19;61.11;100745.00;5198613;28;20060;-90
2023/05/22 02:51:19;;;;;;;1.67;1.58;;;;;;;20.20;60.91;100751.22;5187011;28;20033;-90
2023/05/22 02:54:10;;;;;;;1.17;0.70;;;;;;;20.16;60.58;100744.38;5198782;28;20021;-93
2023/05/22 02:57:01;;;;;;;1.63;1.17;;;;;;;20.11;61.04;100744.69;5194464;28;20042;-91
2023/05/22 02:59:52;;;;;;;1.05;1.05;;;;;;;20.10;61.25;100742.97;5197821;28;20044;-91
2023/05/22 03:02:43;;;;;;;1.70;1.60;;;;;;;20.08;61.52;100743.09;5196044;28;20041;-90
2023/05/22 03:05:34;;;;;;;2.75;1.40;;;;;;;19.99;61.03;100741.03;5192822;28;20065;-89
2023/05/22 03:08:26;;;;;;;1.30;1.20;;;;;;;19.97;61.18;100740.25;5192168;28;20065;-90
2023/05/22 03:11:17;;;;;;;1.85;1.52;;;;;;;19.98;60.47;100747.31;5177313;28;20045;-90
2023/05/22 03:14:08;;;;;;;5.13;2.28;;;;;;;19.95;61.22;100744.88;5178011;28;20037;-91
2023/05/22 03:16:59;;;;;;;1.75;1.25;;;;;;;19.89;61.63;100747.91;5181857;28;20040;-90
2023/05/22 03:19:50;;;;;;;1.23;1.10;;;;;;;19.85;60.77;100746.41;5179192;28;20049;-91
2023/05/22 03:22:44;;;;;;;11.18;3.08;;;;;;;19.88;61.70;100740.88;5171149;28;20052;-92
2023/05/22 03:25:35;;;;;;;0.55;0.55;;;;;;;19.82;61.30;100742.97;5180719;28;20033;-91
2023/05/22 03:28:26;;;;;;;2.75;1.77;;;;;;;19.80;61.68;100738.69;5175675;28;20073;-91
2023/05/22 03:31:17;;;;;;;3.05;1.98;;;;;;;19.64;62.98;100738.84;5191286;28;20048;-91
2023/05/22 03:34:08;;;;;;;2.50;1.42;;;;;;;19.69;61.52;100742.06;5181000;28;20038;-90
2023/05/22 03:36:59;;;;;;;1.15;1.08;;;;;;;19.71;61.57;100741.97;5207912;28;20052;-90
2023/05/22 03:39:49;;;;;;;2.80;1.50;;;;;;;19.67;63.37;100741.31;5199923;28;20033;-90
2023/05/22 03:42:40;;;;;;;3.53;2.00;;;;;;;19.63;62.27;100742.44;5197986;28;20100;-91
2023/05/22 03:45:31;;;;;;;3.35;1.83;;;;;;;19.62;62.28;100746.94;5173865;28;20100;-90
2023/05/22 03:48:22;;;;;;;4.95;1.58;;;;;;;19.57;61.58;100742.84;5178271;28;20045;-90
2023/05/22 03:51:13;;;;;;;2.00;1.90;;;;;;;19.56;62.35;100747.34;5181845;28;20041;-91
2023/05/22 03:54:04;;;;;;;1.58;1.48;;;;;;;19.57;63.96;100753.50;5178938;28;20026;-90
2023/05/22 03:56:54;;;;;;;2.60;1.33;;;;;;;19.56;62.42;100746.47;5180319;28;20387;-92
2023/05/22 03:59:45;;;;;;;2.03;1.83;;;;;;;19.49;62.92;100746.88;5177973;28;20029;-90
2023/05/22 04:02:43;;;;;;;2.60;2.40;;;;;;;19.47;62.84;100747.94;5197474;28;20029;-92
2023/05/22 04:05:34;;;;;;;2.00;1.80;;;;;;;19.41;63.22;100751.81;5176130;28;20029;-91
2023/05/22 04:08:25;;;;;;;2.47;2.28;;;;;;;19.31;64.98;100750.69;5178329;28;20046;-91
2023/05/22 04:11:15;;;;;;;2.10;1.70;;;;;;;19.24;65.64;100754.69;5194100;28;20069;-91
2023/05/22 04:14:07;;;;;;;2.38;2.10;;;;;;;19.11;65.75;100757.28;5187095;28;20052;-90
2023/05/22 04:16:58;;;;;;;2.28;2.08;;;;;;;19.02;67.33;100756.06;5180368;28;20045;-91
2023/05/22 04:19:49;;;;;;;29.73;4.60;;;;;;;19.03;67.32;100760.44;5186005;28;20280;-92
2023/05/22 04:22:40;;;;;;;8.23;3.63;;;;;;;18.99;67.38;100759.75;5200341;28;20076;-91
2023/05/22 04:25:33;;;;;;;4.13;2.63;;;;;;;18.95;67.84;100762.72;5193608;28;20061;-91
2023/05/22 04:28:25;;;;;;;3.40;2.90;;;;;;;18.99;66.91;100766.88;5183359;28;20069;-92
2023/05/22 04:31:16;;;;;;;2.17;1.98;;;;;;;18.79;68.97;100768.94;5194038;28;20061;-88
2023/05/22 04:34:11;;;;;;;2.67;2.47;;;;;;;18.90;67.71;100770.06;5185247;28;20104;-90
2023/05/22 04:37:04;;;;;;;2.30;2.20;;;;;;;18.94;66.28;100771.63;5178941;28;20039;-89
2023/05/22 04:39:57;;;;;;;1.50;1.40;;;;;;;18.50;70.67;100771.53;5201063;28;20013;-90
2023/05/22 04:42:49;;;;;;;2.92;2.63;;;;;;;18.51;71.17;100775.91;5182134;28;20514;-88
2023/05/22 04:45:41;;;;;;;3.42;3.13;;;;;;;18.51;71.21;100781.22;5177630;28;20442;-88
2023/05/22 04:48:32;;;;;;;3.15;2.75;;;;;;;18.72;68.60;100775.53;5187212;28;20034;-88
2023/05/22 04:51:23;;;;;;;3.15;2.42;;;;;;;18.65;70.01;100777.75;5186297;28;20076;-89
2023/05/22 04:54:14;;;;;;;3.95;2.95;;;;;;;18.74;67.36;100781.63;5175040;28;20220;-91
2023/05/22 04:57:05;;;;;;;4.63;2.42;;;;;;;18.80;67.74;100783.91;5170938;28;20045;-89
2023/05/22 04:59:56;;;;;;;1.88;1.77;;;;;;;18.81;66.94;100780.31;5190880;28;20576;-89
2023/05/22 05:02:47;;;;;;;2.83;2.50;;;;;;;18.50;70.33;100778.66;5184730;28;20660;-89
2023/05/22 05:05:37;;;;;;;2.05;1.88;;;;;;;18.47;71.66;100779.69;5172511;28;20065;-89
2023/05/22 05:08:28;;;;;;;5.47;2.88;;;;;;;18.51;70.58;100778.56;5178489;28;20042;-89
2023/05/22 05:11:20;;;;;;;2.20;2.00;;;;;;;18.50;69.29;100784.81;5187045;28;20033;-90
2023/05/22 05:14:11;;;;;;;1.90;1.80;;;;;;;18.55;68.77;100779.22;5194279;28;20044;-90
2023/05/22 05:17:01;;;;;;;2.72;2.33;;;;;;;18.58;70.37;100775.53;5188596;28;20045;-90
2023/05/22 05:19:52;;;;;;;13.25;4.80;;;;;;;18.70;68.85;100786.28;5192225;28;20049;-90
2023/05/22 05:22:44;;;;;;;5.03;2.13;;;;;;;18.50;71.28;100778.66;5172552;28;20041;-89
2023/05/22 05:25:37;;;;;;;4.78;3.47;;;;;;;18.41;72.36;100785.34;5175735;28;20097;-89
2023/05/22 05:28:28;;;;;;;2.55;2.22;;;;;;;18.30;71.87;100782.50;5172601;28;20041;-89
2023/05/22 05:31:19;;;;;;;3.30;3.00;;;;;;;18.14;73.38;100786.03;5169468;28;20563;-88
2023/05/22 05:34:10;;;;;;;2.92;2.30;;;;;;;18.07;73.84;100788.19;5184067;28;20540;-88
2023/05/22 05:37:01;;;;;;;5.78;2.55;;;;;;;17.95;75.23;100791.50;5198864;28;20181;-90
2023/05/22 05:39:52;;;;;;;4.07;2.95;;;;;;;18.22;71.99;100790.91;5201253;28;20053;-89
2023/05/22 05:42:43;;;;;;;8.32;4.35;;;;;;;18.25;72.82;100788.09;5184888;28;20118;-89
2023/05/22 05:45:33;;;;;;;4.03;3.38;;;;;;;18.27;72.73;100801.25;5186998;28;20083;-90
2023/05/22 05:48:24;;;;;;;5.13;4.20;;;;;;;18.15;73.82;100801.00;5175007;28;20060;-89
2023/05/22 05:51:15;;;;;;;6.38;3.25;;;;;;;18.03;74.85;100807.03;5193833;28;20042;-88
2023/05/22 05:54:06;;;;;;;7.97;4.15;;;;;;;18.19;72.22;100791.94;5187376;28;20021;-88
2023/05/22 05:56:56;;;;;;;3.22;2.78;;;;;;;18.13;73.83;100797.63;5170708;28;20041;-87
2023/05/22 05:59:47;;;;;;;2.75;2.55;;;;;;;17.84;76.19;100796.59;5175394;28;20508;-88
2023/05/22 06:02:38;;;;;;;6.35;4.32;;;;;;;17.73;76.91;100797.16;5176671;28;20038;-88
2023/05/22 06:05:29;;;;;;;4.65;2.95;;;;;;;17.91;75.74;100801.44;5178212;28;20064;-89
2023/05/22 06:08:20;;;;;;;7.97;4.05;;;;;;;18.11;73.64;100807.47;5172004;28;20043;-88
2023/05/22 06:11:11;;;;;;;4.88;2.67;;;;;;;18.11;73.27;100810.13;5174399;28;20264;-87
2023/05/22 06:14:03;;;;;;;7.03;2.58;;;;;;;18.30;72.70;100809.06;5170048;28;20044;-88
2023/05/22 06:16:54;;;;;;;3.33;3.10;;;;;;;17.98;74.57;100814.41;5187615;28;20274;-88
2023/05/22 06:19:45;;;;;;;3.75;3.08;;;;;;;18.18;72.22;100816.78;5171727;28;20032;-88
2023/05/22 06:22:36;;;;;;;3.17;2.97;;;;;;;18.00;74.86;100815.16;5173128;28;20065;-89
2023/05/22 06:25:28;;;;;;;5.82;3.85;;;;;;;17.88;75.80;100804.28;5191380;28;20026;-89
2023/05/22 06:28:19;;;;;;;2.65;2.45;;;;;;;18.11;74.45;100814.56;5171653;28;20034;-89
2023/05/22 06:31:10;;;;;;;4.13;3.72;;;;;;;17.86;75.96;100810.59;5195951;28;20234;-88
2023/05/22 06:34:01;;;;;;;7.50;4.57;;;;;;;17.88;75.92;100814.03;5168794;28;20061;-88
2023/05/22 06:36:51;;;;;;;5.72;3.03;;;;;;;17.71;77.27;100815.00;5165748;28;20653;-88
2023/05/22 06:39:42;;;;;;;2.70;2.47;;;;;;;17.69;76.96;100808.91;5186273;28;20059;-88
2023/05/22 06:42:33;;;;;;;7.45;3.17;;;;;;;17.51;78.06;100822.25;5172169;28;20033;-88
2023/05/22 06:45:24;;;;;;;5.70;3.28;;;;;;;17.57;77.65;100824.56;5183150;28;20045;-91
2023/05/22 06:48:15;;;;;;;5.80;4.35;;;;;;;17.67;77.34;100838.19;5211840;28;20160;-88
2023/05/22 06:51:07;;;;;;;3.85;2.95;;;;;;;17.72;75.68;100832.63;5193343;28;20067;-89
2023/05/22 06:53:57;;;;;;;5.18;4.25;;;;;;;18.04;74.12;100841.47;5195805;28;20013;-89
2023/05/22 06:56:48;;;;;;;4.20;3.05;;;;;;;18.10;73.92;100837.59;5201324;28;20045;-88
2023/05/22 06:59:39;;;;;;;3.00;2.75;;;;;;;18.17;74.18;100841.63;5192610;28;20214;-89
2023/05/22 07:02:30;;;;;;;4.20;3.10;;;;;;;18.04;74.64;100840.63;5177688;28;20045;-89
2023/05/22 07:05:20;;;;;;;8.48;4.57;;;;;;;17.89;75.94;100856.41;5194112;28;20073;-89
2023/05/22 07:08:11;;;;;;;4.00;3.63;;;;;;;18.06;74.53;100849.31;5179269;28;20032;-89
2023/05/22 07:11:05;;;;;;;5.32;3.28;;;;;;;18.27;72.48;100851.72;5189369;28;20021;-88
2023/05/22 07:13:56;;;;;;;3.10;2.35;;;;;;;18.19;73.66;100860.97;5188540;28;20029;-89
2023/05/22 07:16:47;;;;;;;5.03;3.42;;;;;;;17.85;76.25;100857.53;5177742;28;20113;-89
2023/05/22 07:19:38;;;;;;;11.07;5.50;;;;;;;18.17;73.98;100854.06;5205429;28;20077;-89
2023/05/22 07:22:28;;;;;;;5.80;3.22;;;;;;;18.43;72.60;100860.50;5179943;28;20120;-90
2023/05/22 07:25:19;;;;;;;4.60;3.75;;;;;;;18.42;72.35;100860.63;5192922;28;20258;-89
2023/05/22 07:28:10;;;;;;;10.30;4.00;;;;;;;18.00;75.45;100860.31;5191747;28;20037;-89
2023/05/22 07:31:01;;;;;;;2.40;2.20;;;;;;;18.06;75.64;100870.56;5195700;28;20045;-89
2023/05/22 07:33:51;;;;;;;7.13;2.90;;;;;;;17.81;76.65;100866.59;5210434;28;20097;-89
2023/05/22 07:36:42;;;;;;;2.65;2.45;;;;;;;17.90;76.27;100862.59;5190391;28;20148;-90
2023/05/22 07:39:33;;;;;;;16.23;4.85;;;;;;;17.77;76.96;100865.06;5192238;28;20076;-89
2023/05/22 07:42:24;;;;;;;4.05;3.08;;;;;;;17.83;76.67;100869.19;5176055;28;20041;-89
2023/05/22 07:45:15;;;;;;;11.90;3.67;;;;;;;17.69;77.55;100865.47;5176594;28;20037;-89
2023/05/22 07:48:06;;;;;;;4.10;3.28;;;;;;;17.82;77.06;100875.44;5186890;28;20084;-89
2023/05/22 07:50:57;;;;;;;4.43;4.05;;;;;;;17.88;76.95;100867.13;5177943;28;20396;-87
2023/05/22 07:53:48;;;;;;;4.35;2.55;;;;;;;18.13;74.33;100866.66;5170688;28;20084;-90
2023/05/22 07:56:41;;;;;;;2.78;2.58;;;;;;;18.12;75.40;100867.59;5182612;28;20552;-88
2023/05/22 07:59:33;;;;;;;2.67;2.22;;;;;;;18.16;75.11;100871.75;5186918;28;20033;-89
2023/05/22 08:02:23;;;;;;;3.15;2.40;;;;;;;18.43;73.43;100878.28;5169786;28;20117;-88
2023/05/22 08:05:14;;;;;;;2.72;2.53;;;;;;;18.42;73.53;100879.22;5171459;28;20431;-87
2023/05/22 08:08:05;;;;;;;3.53;3.22;;;;;;;18.40;74.24;100879.28;5171083;28;20301;-88
2023/05/22 08:10:56;;;;;;;5.07;3.65;;;;;;;18.28;75.05;100887.97;5156200;28;20033;-88
2023/05/22 08:13:46;;;;;;;5.53;3.75;;;;;;;18.28;74.45;100880.00;5197957;28;20080;-89
2023/05/22 08:16:37;;;;;;;5.65;3.60;;;;;;;18.25;74.49;100881.88;5183567;28;20084;-88
2023/05/22 08:19:28;;;;;;;4.38;3.35;;;;;;;18.21;74.56;100890.97;5185653;28;20033;-87
2023/05/22 08:22:19;;;;;;;3.25;2.95;;;;;;;18.14;75.49;100878.97;5187320;28;20112;-89
2023/05/22 08:25:10;;;;;;;3.53;3.22;;;;;;;18.33;74.17;100885.88;5183487;28;20105;-88
2023/05/22 08:28:00;;;;;;;2.72;2.45;;;;;;;18.49;73.30;100899.16;5179159;28;20030;-88
2023/05/22 08:30:51;;;;;;;7.95;3.40;;;;;;;18.59;73.04;100891.50;5163659;28;20061;-88
2023/05/22 08:33:42;;;;;;;4.10;3.80;;;;;;;18.55;73.33;100888.16;5184350;28;20025;-88
2023/05/22 08:36:34;;;;;;;4.45;2.35;;;;;;;18.69;72.55;100887.38;5191647;28;20038;-88
2023/05/22 08:39:25;;;;;;;5.50;4.13;;;;;;;18.68;72.89;100885.66;5191078;28;20096;-89
2023/05/22 08:42:15;;;;;;;4.13;3.00;;;;;;;18.66;72.99;100884.88;5192142;28;20528;-88
2023/05/22 08:45:07;;;;;;;12.23;4.63;;;;;;;18.77;72.40;100893.09;5176816;28;20061;-88
2023/05/22 08:47:58;;;;;;;6.32;3.05;;;;;;;18.81;71.97;100889.28;5169783;28;20378;-89
2023/05/22 08:50:56;;;;;;;2.53;2.33;;;;;;;18.46;73.51;100894.00;5170429;28;20037;-88
2023/05/22 08:53:50;;;;;;;3.00;2.75;;;;;;;18.75;72.17;100902.94;5169703;28;20412;-88
2023/05/22 08:56:41;;;;;;;3.28;2.97;;;;;;;18.55;73.15;100899.63;5172292;28;20120;-87
2023/05/22 08:59:37;;;;;;;3.72;2.15;;;;;;;18.92;71.17;100898.44;5191184;28;20036;-88
2023/05/22 09:02:30;;;;;;;7.32;3.30;;;;;;;18.87;71.18;100904.91;5173718;28;20072;-88
2023/05/22 09:05:25;;;;;;;4.28;3.42;;;;;;;18.67;72.91;100899.88;5187793;28;20033;-89
2023/05/22 09:08:17;;;;;;;10.40;5.88;;;;;;;18.85;71.50;100905.91;5184493;28;20038;-88
2023/05/22 09:11:09;;;;;;;5.75;3.08;;;;;;;18.38;73.50;100905.94;5190436;28;20508;-89
2023/05/22 09:14:08;;;;;;;4.80;3.60;;;;;;;18.07;74.59;100912.09;5187007;28;20048;-88
2023/05/22 09:16:59;;;;;;;6.05;3.60;;;;;;;17.69;76.13;100909.75;5192215;28;20061;-89
2023/05/22 09:19:51;;;;;;;5.45;2.55;;;;;;;18.12;74.40;100912.72;5204726;28;20026;-89
2023/05/22 09:22:41;;;;;;;4.57;3.45;;;;;;;18.34;73.31;100908.84;5202904;28;20030;-88
2023/05/22 09:25:32;;;;;;;3.05;2.78;;;;;;;18.56;72.59;100911.97;5211093;28;20026;-88
2023/05/22 09:28:23;;;;;;;11.63;3.13;;;;;;;18.45;72.82;100914.41;5209683;28;20081;-88
2023/05/22 09:31:15;;;;;;;5.28;3.78;;;;;;;18.50;72.72;100909.69;5181873;28;20523;-89
2023/05/22 09:34:07;;;;;;;5.50;3.45;;;;;;;18.72;72.05;100917.28;5202380;28;20037;-89
2023/05/22 09:37:04;;;;;;;3.47;2.60;;;;;;;18.47;72.98;100916.97;5218881;28;20037;-89
2023/05/22 09:39:55;;;;;;;3.03;2.83;;;;;;;18.79;71.86;100919.56;5202576;28;20068;-88
2023/05/22 09:42:46;;;;;;;3.47;2.45;;;;;;;18.90;71.52;100921.59;5172021;28;20044;-89
2023/05/22 09:45:38;;;;;;;3.22;2.20;;;;;;;18.84;71.85;100926.34;5214288;28;20034;-88
2023/05/22 09:48:35;;;;;;;3.25;2.17;;;;;;;19.06;70.67;100916.25;5204334;28;20036;-89
2023/05/22 09:51:26;;;;;;;4.68;2.80;;;;;;;18.75;72.33;100923.38;5190106;28;20093;-88
2023/05/22 09:54:20;;;;;;;7.72;3.38;;;;;;;18.46;73.89;100924.09;5173195;28;20034;-89
2023/05/22 09:57:13;;;;;;;2.78;2.45;;;;;;;18.98;71.44;100922.03;5186636;28;20029;-89
2023/05/22 10:00:09;;;;;;;4.28;3.33;;;;;;;18.79;72.22;100923.09;5187531;28;20026;-89
2023/05/22 10:03:07;;;;;;;6.75;3.35;;;;;;;18.69;72.38;100927.22;5192042;28;20081;-89
2023/05/22 10:06:00;;;;;;;3.28;2.90;;;;;;;18.79;72.34;100922.22;5186146;28;20052;-89
2023/05/22 10:08:58;;;;;;;2.03;1.85;;;;;;;18.99;71.58;100918.44;5182809;28;20036;-89
2023/05/22 10:11:53;;;;;;;2.35;2.15;;;;;;;19.28;69.69;100919.34;5172926;28;20109;-89
2023/05/22 10:14:45;;;;;;;2.67;2.55;;;;;;;19.30;70.09;100928.09;5202863;28;20022;-88
2023/05/22 10:17:37;;;;;;;6.72;3.53;;;;;;;19.24;70.20;100933.78;5189530;28;20041;-88
2023/05/22 10:20:29;;;;;;;8.63;4.85;;;;;;;19.25;70.75;100930.19;5172216;28;20033;-89
2023/05/22 10:23:21;;;;;;;3.03;2.75;;;;;;;19.39;70.05;100924.00;5181502;28;20496;-89
2023/05/22 10:26:12;;;;;;;3.47;2.25;;;;;;;19.17;70.91;100927.97;5181836;28;20061;-87
2023/05/22 10:29:10;;;;;;;4.43;2.63;;;;;;;19.21;70.58;100928.63;5175464;28;20021;-89
2023/05/22 10:32:30;;;;;;;4.20;3.42;;;;;;;19.10;70.94;100926.63;5170030;28;20044;-88
2023/05/22 10:35:28;;;;;;;6.55;3.20;;;;;;;19.23;70.94;100915.22;5201765;28;20041;-89
2023/05/22 10:38:42;;;;;;;3.70;3.33;;;;;;;19.48;69.84;100922.59;5187692;28;20045;-88
2023/05/22 10:41:33;;;;;;;11.85;4.85;;;;;;;19.23;70.42;100920.56;5185499;28;20128;-89
2023/05/22 10:44:25;;;;;;;10.48;5.25;;;;;;;19.35;70.49;100920.66;5184084;28;20037;-88
2023/05/22 10:47:16;;;;;;;4.75;3.78;;;;;;;19.42;70.50;100917.66;5183486;28;20034;-89
2023/05/22 10:50:10;;;;;;;2.75;2.22;;;;;;;19.62;69.19;100916.44;5174236;28;20080;-89
2023/05/22 10:53:23;;;;;;;4.95;3.58;;;;;;;19.61;69.44;100915.56;5178123;28;20073;-89
2023/05/22 10:56:17;;;;;;;3.83;3.50;;;;;;;19.48;69.80;100915.44;5194393;28;20049;-89
2023/05/22 10:59:08;;;;;;;5.65;3.78;;;;;;;19.64;69.47;100909.19;5175225;28;20161;-89
2023/05/22 11:02:04;;;;;;;6.63;3.38;;;;;;;19.75;68.88;100917.34;5188106;28;20025;-89
2023/05/22 11:05:17;;;;;;;5.95;4.05;;;;;;;19.73;69.30;100913.09;5186618;28;20021;-90
2023/05/22 11:08:31;;;;;;;3.05;2.60;;;;;;;19.72;69.80;100906.88;5185211;28;20033;-89
2023/05/22 11:11:26;;;;;;;4.32;3.40;;;;;;;19.97;68.37;100910.69;5179394;28;20072;-90
2023/05/22 11:14:19;;;;;;;3.60;3.28;;;;;;;19.99;68.10;100902.63;5192526;28;20101;-90
2023/05/22 11:17:12;;;;;;;4.20;3.33;;;;;;;20.17;67.99;100905.91;5199418;28;20020;-89
2023/05/22 11:20:17;;;;;;;5.18;3.95;;;;;;;20.16;68.06;100906.84;5202433;28;20148;-89
2023/05/22 11:23:09;;;;;;;3.67;3.33;;;;;;;20.29;67.39;100905.09;5175459;28;20539;-89
2023/05/22 11:26:27;;;;;;;2.45;2.30;;;;;;;20.33;67.64;100895.97;5187048;28;20029;-89
2023/05/22 11:29:17;;;;;;;3.80;3.38;;;;;;;20.37;67.13;100900.13;5187171;28;20061;-89
2023/05/22 11:32:14;;;;;;;3.75;3.45;;;;;;;20.22;67.57;100898.47;5184295;28;20037;-91
2023/05/22 11:35:06;;;;;;;4.05;2.67;;;;;;;20.56;67.16;100893.56;5172502;28;20026;-90
2023/05/22 11:37:57;;;;;;;6.85;3.85;;;;;;;20.65;67.02;100892.97;5201670;28;20044;-89
2023/05/22 11:40:50;;;;;;;5.28;3.40;;;;;;;20.73;66.77;100896.00;5188821;28;20028;-89
2023/05/22 11:43:41;;;;;;;4.93;3.28;;;;;;;20.52;66.43;100894.75;5187068;28;20049;-90
2023/05/22 11:46:33;;;;;;;2.97;2.75;;;;;;;20.80;66.60;100884.91;5169618;28;20600;-90
2023/05/22 11:49:24;;;;;;;3.60;3.30;;;;;;;20.92;66.90;100876.94;5176762;28;20417;-91
2023/05/22 11:52:15;;;;;;;3.88;3.28;;;;;;;21.13;66.01;100878.22;5171246;28;20034;-90
2023/05/22 11:55:07;;;;;;;6.30;4.43;;;;;;;21.12;65.77;100877.38;5167957;28;20044;-89
2023/05/22 11:57:59;;;;;;;7.65;4.10;;;;;;;21.12;65.89;100873.84;5183572;28;20030;-89
2023/05/22 12:00:50;;;;;;;5.60;3.40;;;;;;;21.29;65.43;100878.03;5183422;28;20026;-89
2023/05/22 12:03:41;;;;;;;4.72;3.20;;;;;;;21.40;64.58;100875.47;5188206;28;20092;-89
2023/05/22 12:06:32;;;;;;;9.38;3.67;;;;;;;21.21;65.67;100876.75;5183233;28;20128;-88
2023/05/22 12:09:23;;;;;;;7.80;2.85;;;;;;;21.48;64.93;100872.25;5167224;28;20041;-88
2023/05/22 12:12:15;;;;;;;5.15;4.57;;;;;;;21.64;64.33;100872.88;5170038;28;20033;-89
2023/05/22 12:15:06;;;;;;;5.32;4.10;;;;;;;21.67;64.83;100862.00;5203030;28;20030;-90
2023/05/22 12:17:57;;;;;;;4.18;3.90;;;;;;;21.86;64.69;100868.66;5169995;28;20033;-90
2023/05/22 12:20:53;;;;;;;9.85;6.10;;;;;;;21.91;63.76;100863.84;5172137;28;20029;-89
2023/05/22 12:23:50;;;;;;;4.65;4.25;;;;;;;21.94;63.23;100868.97;5169557;28;20049;-90
2023/05/22 12:26:48;;;;;;;5.22;4.22;;;;;;;21.98;63.79;100862.44;5200814;28;20060;-89
2023/05/22 12:29:40;;;;;;;4.80;4.22;;;;;;;22.24;62.72;100854.31;5172374;28;20068;-90
2023/05/22 12:32:31;;;;;;;13.20;5.13;;;;;;;22.36;62.57;100867.72;5173455;28;20691;-89
2023/05/22 12:35:22;;;;;;;5.35;4.85;;;;;;;22.50;62.39;100858.69;5171067;28;20033;-90
2023/05/22 12:38:13;;;;;;;8.20;2.83;;;;;;;22.30;61.79;100856.53;5171790;28;20030;-91
2023/05/22 12:41:04;;;;;;;7.15;3.20;;;;;;;22.61;61.76;100854.25;5193771;28;20085;-92
2023/05/22 12:43:55;;;;;;;7.97;5.10;;;;;;;22.69;60.58;100855.47;5171805;28;20053;-90
2023/05/22 12:46:46;;;;;;;4.70;3.58;;;;;;;22.82;60.52;100850.03;5173443;28;20116;-90
2023/05/22 12:49:37;;;;;;;7.40;3.47;;;;;;;22.61;60.00;100854.25;5181271;28;20032;-90
2023/05/22 12:52:27;;;;;;;6.32;4.05;;;;;;;23.01;59.79;100850.34;5170088;28;20045;-89
2023/05/22 12:55:18;;;;;;;8.13;5.15;;;;;;;23.09;60.15;100849.75;5169999;28;20033;-91
2023/05/22 12:58:09;;;;;;;7.63;5.00;;;;;;;23.24;59.98;100843.22;5173256;28;20651;-91
2023/05/22 13:00:59;;;;;;;5.07;4.43;;;;;;;23.38;59.69;100844.81;5184165;28;20035;-91
2023/05/22 13:03:51;;;;;;;10.35;3.97;;;;;;;23.47;59.01;100837.84;5178261;28;20030;-92
2023/05/22 13:06:42;;;;;;;6.15;4.05;;;;;;;23.57;58.44;100836.16;5185258;28;20053;-92
2023/05/22 13:09:33;;;;;;;4.68;2.65;;;;;;;23.07;58.14;100835.63;5182213;28;20029;-92
2023/05/22 13:12:25;;;;;;;6.18;4.60;;;;;;;23.50;58.40;100842.97;5174136;28;20029;-92
2023/05/22 13:15:17;;;;;;;5.65;4.40;;;;;;;23.80;58.42;100840.63;5187106;28;20471;-92
2023/05/22 13:18:08;;;;;;;5.05;4.15;;;;;;;23.94;57.67;100844.84;5189893;28;20481;-92
2023/05/22 13:20:59;;;;;;;6.00;3.17;;;;;;;24.00;57.96;100844.38;5193723;28;20029;-91
2023/05/22 13:23:50;;;;;;;9.18;7.22;;;;;;;24.06;56.92;100835.84;5207962;28;20037;-91